Accueil
METAR-TAF:

METAR-TAF

Aéroports :

Toussus-le-Noble, France

Aéroport de Toussus-le-Noble

latitude: 48-46N, longitude: 002-06E, altitude: 164 m

Observation

Le bulletin a été fait il y a 28 minutes, à 01:30 UTC
Vent 2 kt de direction variable
Température 14°C
Humidité 82%
Pression 1020 hPa
Visibilité 10 km ou plus
Nuages épars à une hauteur de 4800 ft

METAR: LFPN 240130Z AUTO VRB02KT 9999 SCT048 14/11 Q1020

Heure: 03:58 (01:58 UTC)

Prévision

Le bulletin a été fait il y a 8 heures et 58 minutes, à 17:00 UTC
Prévision valable du 23 à 18 UTC au 24 à 03 UTC
Vent 7 kt de ouest/nord-ouest
Visibilité 10 km ou plus
pas de nuages en-dessous de 1500 mètres et pas de cumulonimbus.

TAF: LFPN 231700Z 2318/2403 30007KT CAVOK

Observations et prévisions météorologiques de plus de 4000 aéroports (messages METAR et TAF).

Les stations disponibles sont représentées par des disques jaunes et rouges sur la carte.

Passer la souris dessus pour voir le nom de la station.

Cliquer dessus pour voir les observations et prévisions météorologiques.

Pour changer de carte: cliquez sur les boutons verts avec une croix noire pour zoomer, sur le bouton vert avec un tiret pour effectuer un zoom arrière, ou sur les flèches vertes pour les cartes adjacentes.


METAR-TAF: